sensor_id;sensor_type;location;lat;lon;timestamp;temperature;humidity
44517;DHT22;30223;17.182;-96.766;2022-08-01T00:00:04;25.50;62.60
44517;DHT22;30223;17.182;-96.766;2022-08-01T00:02:31;25.50;62.60
44517;DHT22;30223;17.182;-96.766;2022-08-01T00:04:58;25.50;62.60
44517;DHT22;30223;17.182;-96.766;2022-08-01T00:07:26;25.40;62.60
44517;DHT22;30223;17.182;-96.766;2022-08-01T00:09:52;25.50;62.70
44517;DHT22;30223;17.182;-96.766;2022-08-01T00:12:19;25.50;62.80
44517;DHT22;30223;17.182;-96.766;2022-08-01T00:14:45;25.50;62.70
44517;DHT22;30223;17.182;-96.766;2022-08-01T00:17:12;25.50;62.80
44517;DHT22;30223;17.182;-96.766;2022-08-01T00:19:39;25.50;62.80
44517;DHT22;30223;17.182;-96.766;2022-08-01T00:22:05;25.50;62.80
44517;DHT22;30223;17.182;-96.766;2022-08-01T00:24:32;25.40;62.70
44517;DHT22;30223;17.182;-96.766;2022-08-01T00:26:59;25.40;63.40
44517;DHT22;30223;17.182;-96.766;2022-08-01T00:29:25;25.50;62.90
44517;DHT22;30223;17.182;-96.766;2022-08-01T00:31:52;25.40;62.90
44517;DHT22;30223;17.182;-96.766;2022-08-01T00:34:18;25.40;62.90
44517;DHT22;30223;17.182;-96.766;2022-08-01T00:36:45;25.40;62.90
44517;DHT22;30223;17.182;-96.766;2022-08-01T00:39:12;25.40;62.90
44517;DHT22;30223;17.182;-96.766;2022-08-01T00:41:39;25.40;63.00
44517;DHT22;30223;17.182;-96.766;2022-08-01T00:44:06;25.40;63.00
44517;DHT22;30223;17.182;-96.766;2022-08-01T00:46:33;25.40;63.00
44517;DHT22;30223;17.182;-96.766;2022-08-01T00:49:00;25.30;63.00
44517;DHT22;30223;17.182;-96.766;2022-08-01T00:51:27;25.30;63.00
44517;DHT22;30223;17.182;-96.766;2022-08-01T00:53:54;25.30;63.00
44517;DHT22;30223;17.182;-96.766;2022-08-01T00:56:23;25.30;63.00
44517;DHT22;30223;17.182;-96.766;2022-08-01T00:58:51;25.30;63.10
44517;DHT22;30223;17.182;-96.766;2022-08-01T01:01:17;25.30;63.40
44517;DHT22;30223;17.182;-96.766;2022-08-01T01:03:48;25.30;63.20
44517;DHT22;30223;17.182;-96.766;2022-08-01T01:06:25;25.30;63.20
44517;DHT22;30223;17.182;-96.766;2022-08-01T01:14:41;25.20;63.10
44517;DHT22;30223;17.182;-96.766;2022-08-01T01:17:17;25.20;63.20
44517;DHT22;30223;17.182;-96.766;2022-08-01T01:19:50;25.20;63.20
44517;DHT22;30223;17.182;-96.766;2022-08-01T01:22:36;25.20;63.30
44517;DHT22;30223;17.182;-96.766;2022-08-01T01:25:39;25.20;63.20
44517;DHT22;30223;17.182;-96.766;2022-08-01T01:30:38;25.10;63.20
44517;DHT22;30223;17.182;-96.766;2022-08-01T01:33:10;25.10;63.30
44517;DHT22;30223;17.182;-96.766;2022-08-01T01:35:42;25.10;63.30
44517;DHT22;30223;17.182;-96.766;2022-08-01T01:38:17;25.10;63.30
44517;DHT22;30223;17.182;-96.766;2022-08-01T01:40:46;25.10;63.30
44517;DHT22;30223;17.182;-96.766;2022-08-01T01:43:14;25.10;63.30
44517;DHT22;30223;17.182;-96.766;2022-08-01T01:45:43;25.10;63.30
44517;DHT22;30223;17.182;-96.766;2022-08-01T01:48:13;25.10;63.40
44517;DHT22;30223;17.182;-96.766;2022-08-01T01:50:43;25.10;63.40
44517;DHT22;30223;17.182;-96.766;2022-08-01T01:53:13;25.10;63.40
44517;DHT22;30223;17.182;-96.766;2022-08-01T01:55:44;25.00;63.30
44517;DHT22;30223;17.182;-96.766;2022-08-01T01:58:13;25.00;63.40
44517;DHT22;30223;17.182;-96.766;2022-08-01T02:00:42;25.00;63.40
44517;DHT22;30223;17.182;-96.766;2022-08-01T02:03:11;25.00;63.40
44517;DHT22;30223;17.182;-96.766;2022-08-01T02:05:38;25.00;63.40
44517;DHT22;30223;17.182;-96.766;2022-08-01T02:08:07;25.00;63.40
44517;DHT22;30223;17.182;-96.766;2022-08-01T02:10:35;25.00;63.40
44517;DHT22;30223;17.182;-96.766;2022-08-01T02:13:04;25.00;63.50
44517;DHT22;30223;17.182;-96.766;2022-08-01T02:15:34;25.00;63.40
44517;DHT22;30223;17.182;-96.766;2022-08-01T02:18:06;24.90;63.40
44517;DHT22;30223;17.182;-96.766;2022-08-01T02:20:35;25.00;63.50
44517;DHT22;30223;17.182;-96.766;2022-08-01T02:23:12;24.90;63.40
44517;DHT22;30223;17.182;-96.766;2022-08-01T02:25:43;24.90;63.40
44517;DHT22;30223;17.182;-96.766;2022-08-01T02:28:25;24.90;63.40
44517;DHT22;30223;17.182;-96.766;2022-08-01T02:30:56;24.90;63.40
44517;DHT22;30223;17.182;-96.766;2022-08-01T02:33:39;24.90;63.40
44517;DHT22;30223;17.182;-96.766;2022-08-01T02:36:07;24.90;63.40
44517;DHT22;30223;17.182;-96.766;2022-08-01T02:38:37;24.80;63.40
44517;DHT22;30223;17.182;-96.766;2022-08-01T02:41:08;24.80;63.40
44517;DHT22;30223;17.182;-96.766;2022-08-01T02:43:38;24.80;63.40
44517;DHT22;30223;17.182;-96.766;2022-08-01T02:46:09;24.80;63.40
44517;DHT22;30223;17.182;-96.766;2022-08-01T02:48:38;24.80;63.40
44517;DHT22;30223;17.182;-96.766;2022-08-01T02:51:07;24.80;63.40
44517;DHT22;30223;17.182;-96.766;2022-08-01T02:53:37;24.80;63.30
44517;DHT22;30223;17.182;-96.766;2022-08-01T02:56:06;24.80;63.40
44517;DHT22;30223;17.182;-96.766;2022-08-01T02:58:35;24.80;63.40
44517;DHT22;30223;17.182;-96.766;2022-08-01T03:01:05;24.70;63.40
44517;DHT22;30223;17.182;-96.766;2022-08-01T03:03:31;24.80;63.40
44517;DHT22;30223;17.182;-96.766;2022-08-01T03:06:00;24.70;63.40
44517;DHT22;30223;17.182;-96.766;2022-08-01T03:08:29;24.70;63.30
44517;DHT22;30223;17.182;-96.766;2022-08-01T03:10:57;24.70;63.40
44517;DHT22;30223;17.182;-96.766;2022-08-01T03:13:25;24.70;63.40
44517;DHT22;30223;17.182;-96.766;2022-08-01T03:15:53;24.70;63.40
44517;DHT22;30223;17.182;-96.766;2022-08-01T03:18:21;24.60;63.30
44517;DHT22;30223;17.182;-96.766;2022-08-01T03:20:51;24.60;63.30
44517;DHT22;30223;17.182;-96.766;2022-08-01T03:23:19;24.60;63.30
44517;DHT22;30223;17.182;-96.766;2022-08-01T03:25:48;24.60;63.30
44517;DHT22;30223;17.182;-96.766;2022-08-01T03:28:16;24.60;63.30
44517;DHT22;30223;17.182;-96.766;2022-08-01T03:30:45;24.60;63.30
44517;DHT22;30223;17.182;-96.766;2022-08-01T03:33:12;24.60;63.30
44517;DHT22;30223;17.182;-96.766;2022-08-01T03:35:47;24.60;63.20
44517;DHT22;30223;17.182;-96.766;2022-08-01T03:38:18;24.60;63.20
44517;DHT22;30223;17.182;-96.766;2022-08-01T03:40:53;24.60;63.20
44517;DHT22;30223;17.182;-96.766;2022-08-01T03:43:38;24.60;63.20
44517;DHT22;30223;17.182;-96.766;2022-08-01T03:46:11;24.60;63.20
44517;DHT22;30223;17.182;-96.766;2022-08-01T03:48:48;24.50;63.20
44517;DHT22;30223;17.182;-96.766;2022-08-01T03:51:15;24.50;63.10
44517;DHT22;30223;17.182;-96.766;2022-08-01T03:53:45;24.50;63.10
44517;DHT22;30223;17.182;-96.766;2022-08-01T03:56:16;24.50;63.10
44517;DHT22;30223;17.182;-96.766;2022-08-01T03:58:46;24.50;63.00
44517;DHT22;30223;17.182;-96.766;2022-08-01T04:01:13;24.50;63.00
44517;DHT22;30223;17.182;-96.766;2022-08-01T04:03:40;24.50;63.00
44517;DHT22;30223;17.182;-96.766;2022-08-01T04:06:07;24.50;63.00
44517;DHT22;30223;17.182;-96.766;2022-08-01T04:08:38;24.50;63.00
44517;DHT22;30223;17.182;-96.766;2022-08-01T04:11:07;24.50;63.00
44517;DHT22;30223;17.182;-96.766;2022-08-01T04:13:33;24.50;63.00
44517;DHT22;30223;17.182;-96.766;2022-08-01T04:16:00;24.40;63.00
44517;DHT22;30223;17.182;-96.766;2022-08-01T04:18:27;24.40;62.90
44517;DHT22;30223;17.182;-96.766;2022-08-01T04:20:54;24.40;62.90
44517;DHT22;30223;17.182;-96.766;2022-08-01T04:23:24;24.40;62.90
44517;DHT22;30223;17.182;-96.766;2022-08-01T04:25:51;24.40;63.00
44517;DHT22;30223;17.182;-96.766;2022-08-01T04:28:19;24.40;63.00
44517;DHT22;30223;17.182;-96.766;2022-08-01T04:30:47;24.40;63.50
44517;DHT22;30223;17.182;-96.766;2022-08-01T04:33:17;24.40;62.90
44517;DHT22;30223;17.182;-96.766;2022-08-01T04:35:46;24.40;62.90
44517;DHT22;30223;17.182;-96.766;2022-08-01T04:38:17;24.30;62.90
44517;DHT22;30223;17.182;-96.766;2022-08-01T04:40:47;24.40;63.00
44517;DHT22;30223;17.182;-96.766;2022-08-01T04:43:15;24.30;63.00
44517;DHT22;30223;17.182;-96.766;2022-08-01T04:45:42;24.30;63.00
44517;DHT22;30223;17.182;-96.766;2022-08-01T04:48:10;24.30;63.00
44517;DHT22;30223;17.182;-96.766;2022-08-01T04:50:37;24.30;63.00
44517;DHT22;30223;17.182;-96.766;2022-08-01T04:53:04;24.30;63.00
44517;DHT22;30223;17.182;-96.766;2022-08-01T04:55:31;24.30;63.70
44517;DHT22;30223;17.182;-96.766;2022-08-01T04:57:57;24.30;62.40
44517;DHT22;30223;17.182;-96.766;2022-08-01T05:00:24;24.30;62.50
44517;DHT22;30223;17.182;-96.766;2022-08-01T05:02:51;24.40;62.40
44517;DHT22;30223;17.182;-96.766;2022-08-01T05:05:18;24.40;62.40
44517;DHT22;30223;17.182;-96.766;2022-08-01T05:07:45;24.50;62.60
44517;DHT22;30223;17.182;-96.766;2022-08-01T05:10:12;24.50;62.00
44517;DHT22;30223;17.182;-96.766;2022-08-01T05:12:38;24.50;61.40
44517;DHT22;30223;17.182;-96.766;2022-08-01T05:15:06;24.40;61.40
44517;DHT22;30223;17.182;-96.766;2022-08-01T05:17:32;24.40;61.60
44517;DHT22;30223;17.182;-96.766;2022-08-01T05:19:59;24.40;61.60
44517;DHT22;30223;17.182;-96.766;2022-08-01T05:22:26;24.40;61.70
44517;DHT22;30223;17.182;-96.766;2022-08-01T05:24:53;24.30;62.50
44517;DHT22;30223;17.182;-96.766;2022-08-01T05:27:19;24.30;63.20
44517;DHT22;30223;17.182;-96.766;2022-08-01T05:29:46;24.30;63.70
44517;DHT22;30223;17.182;-96.766;2022-08-01T05:32:12;24.20;63.70
44517;DHT22;30223;17.182;-96.766;2022-08-01T05:34:39;24.20;63.00
44517;DHT22;30223;17.182;-96.766;2022-08-01T05:37:06;24.20;63.10
44517;DHT22;30223;17.182;-96.766;2022-08-01T05:39:33;24.20;63.70
44517;DHT22;30223;17.182;-96.766;2022-08-01T05:42:00;24.20;63.60
44517;DHT22;30223;17.182;-96.766;2022-08-01T05:44:26;24.10;63.20
44517;DHT22;30223;17.182;-96.766;2022-08-01T05:46:53;24.10;62.90
44517;DHT22;30223;17.182;-96.766;2022-08-01T05:49:19;24.10;62.90
44517;DHT22;30223;17.182;-96.766;2022-08-01T05:51:46;24.00;62.70
44517;DHT22;30223;17.182;-96.766;2022-08-01T05:54:13;24.00;62.90
44517;DHT22;30223;17.182;-96.766;2022-08-01T05:56:39;24.00;62.90
44517;DHT22;30223;17.182;-96.766;2022-08-01T05:59:06;24.00;63.00
44517;DHT22;30223;17.182;-96.766;2022-08-01T06:01:33;24.00;62.50
44517;DHT22;30223;17.182;-96.766;2022-08-01T06:03:59;23.90;62.50
44517;DHT22;30223;17.182;-96.766;2022-08-01T06:06:26;23.90;62.80
44517;DHT22;30223;17.182;-96.766;2022-08-01T06:08:53;23.90;62.70
44517;DHT22;30223;17.182;-96.766;2022-08-01T06:11:19;23.90;62.50
44517;DHT22;30223;17.182;-96.766;2022-08-01T06:13:46;23.80;62.30
44517;DHT22;30223;17.182;-96.766;2022-08-01T06:16:12;23.80;62.50
44517;DHT22;30223;17.182;-96.766;2022-08-01T06:18:39;23.80;62.50
44517;DHT22;30223;17.182;-96.766;2022-08-01T06:21:06;23.80;62.50
44517;DHT22;30223;17.182;-96.766;2022-08-01T06:23:32;23.70;62.40
44517;DHT22;30223;17.182;-96.766;2022-08-01T06:25:59;23.70;62.50
44517;DHT22;30223;17.182;-96.766;2022-08-01T06:28:26;23.70;62.60
44517;DHT22;30223;17.182;-96.766;2022-08-01T06:30:52;23.70;62.70
44517;DHT22;30223;17.182;-96.766;2022-08-01T06:33:19;23.70;62.70
44517;DHT22;30223;17.182;-96.766;2022-08-01T06:35:46;23.60;62.50
44517;DHT22;30223;17.182;-96.766;2022-08-01T06:38:14;23.60;62.50
44517;DHT22;30223;17.182;-96.766;2022-08-01T06:40:40;23.60;62.40
44517;DHT22;30223;17.182;-96.766;2022-08-01T06:43:07;23.50;62.20
44517;DHT22;30223;17.182;-96.766;2022-08-01T06:45:34;23.50;62.40
44517;DHT22;30223;17.182;-96.766;2022-08-01T06:48:02;23.50;62.60
44517;DHT22;30223;17.182;-96.766;2022-08-01T06:50:29;23.50;62.70
44517;DHT22;30223;17.182;-96.766;2022-08-01T06:52:56;23.50;62.70
44517;DHT22;30223;17.182;-96.766;2022-08-01T06:55:22;23.50;62.80
44517;DHT22;30223;17.182;-96.766;2022-08-01T06:57:51;23.40;62.70
44517;DHT22;30223;17.182;-96.766;2022-08-01T07:00:20;23.40;62.80
44517;DHT22;30223;17.182;-96.766;2022-08-01T07:02:55;23.40;62.80
44517;DHT22;30223;17.182;-96.766;2022-08-01T07:05:22;23.40;62.80
44517;DHT22;30223;17.182;-96.766;2022-08-01T07:07:49;23.40;62.70
44517;DHT22;30223;17.182;-96.766;2022-08-01T07:10:16;23.40;62.80
44517;DHT22;30223;17.182;-96.766;2022-08-01T07:12:43;23.40;62.80
44517;DHT22;30223;17.182;-96.766;2022-08-01T07:15:10;23.40;62.80
44517;DHT22;30223;17.182;-96.766;2022-08-01T07:17:41;23.30;62.80
44517;DHT22;30223;17.182;-96.766;2022-08-01T07:20:10;23.30;62.90
44517;DHT22;30223;17.182;-96.766;2022-08-01T07:22:37;23.30;63.00
44517;DHT22;30223;17.182;-96.766;2022-08-01T07:25:08;23.30;63.10
44517;DHT22;30223;17.182;-96.766;2022-08-01T07:27:35;23.30;63.00
44517;DHT22;30223;17.182;-96.766;2022-08-01T07:30:02;23.30;63.10
44517;DHT22;30223;17.182;-96.766;2022-08-01T07:32:29;23.20;63.10
44517;DHT22;30223;17.182;-96.766;2022-08-01T07:34:57;23.30;63.70
44517;DHT22;30223;17.182;-96.766;2022-08-01T07:37:23;23.20;63.00
44517;DHT22;30223;17.182;-96.766;2022-08-01T07:39:50;23.20;63.10
44517;DHT22;30223;17.182;-96.766;2022-08-01T07:42:17;23.20;63.20
44517;DHT22;30223;17.182;-96.766;2022-08-01T07:44:43;23.20;63.00
44517;DHT22;30223;17.182;-96.766;2022-08-01T07:47:10;23.20;62.80
44517;DHT22;30223;17.182;-96.766;2022-08-01T07:49:37;23.10;62.80
44517;DHT22;30223;17.182;-96.766;2022-08-01T07:52:04;23.10;63.00
44517;DHT22;30223;17.182;-96.766;2022-08-01T07:54:34;23.10;63.10
44517;DHT22;30223;17.182;-96.766;2022-08-01T07:57:01;23.10;63.10
44517;DHT22;30223;17.182;-96.766;2022-08-01T07:59:28;23.10;63.20
44517;DHT22;30223;17.182;-96.766;2022-08-01T08:01:54;23.10;63.20
44517;DHT22;30223;17.182;-96.766;2022-08-01T08:04:21;23.10;63.10
44517;DHT22;30223;17.182;-96.766;2022-08-01T08:06:47;23.10;63.10
44517;DHT22;30223;17.182;-96.766;2022-08-01T08:09:15;23.10;63.20
44517;DHT22;30223;17.182;-96.766;2022-08-01T08:11:45;23.10;63.10
44517;DHT22;30223;17.182;-96.766;2022-08-01T08:14:12;23.10;63.10
44517;DHT22;30223;17.182;-96.766;2022-08-01T08:16:39;23.10;63.20
44517;DHT22;30223;17.182;-96.766;2022-08-01T08:19:05;23.10;63.20
44517;DHT22;30223;17.182;-96.766;2022-08-01T08:21:32;23.00;63.20
44517;DHT22;30223;17.182;-96.766;2022-08-01T08:23:58;23.00;63.20
44517;DHT22;30223;17.182;-96.766;2022-08-01T08:26:43;23.00;63.30
44517;DHT22;30223;17.182;-96.766;2022-08-01T08:29:10;23.00;63.30
44517;DHT22;30223;17.182;-96.766;2022-08-01T08:31:36;23.00;63.30
44517;DHT22;30223;17.182;-96.766;2022-08-01T08:34:03;23.00;63.40
44517;DHT22;30223;17.182;-96.766;2022-08-01T08:36:30;23.00;63.20
44517;DHT22;30223;17.182;-96.766;2022-08-01T08:38:57;23.00;63.30
44517;DHT22;30223;17.182;-96.766;2022-08-01T08:41:23;23.00;63.30
44517;DHT22;30223;17.182;-96.766;2022-08-01T08:43:50;23.00;63.40
44517;DHT22;30223;17.182;-96.766;2022-08-01T08:46:17;23.00;63.40
44517;DHT22;30223;17.182;-96.766;2022-08-01T08:48:45;22.90;63.40
44517;DHT22;30223;17.182;-96.766;2022-08-01T08:51:12;22.90;63.40
44517;DHT22;30223;17.182;-96.766;2022-08-01T08:53:41;22.90;63.50
44517;DHT22;30223;17.182;-96.766;2022-08-01T08:56:14;22.90;63.60
44517;DHT22;30223;17.182;-96.766;2022-08-01T08:58:44;22.90;63.60
44517;DHT22;30223;17.182;-96.766;2022-08-01T09:01:12;22.90;63.70
44517;DHT22;30223;17.182;-96.766;2022-08-01T09:03:39;22.80;63.70
44517;DHT22;30223;17.182;-96.766;2022-08-01T09:06:06;22.80;63.70
44517;DHT22;30223;17.182;-96.766;2022-08-01T09:08:33;22.80;63.60
44517;DHT22;30223;17.182;-96.766;2022-08-01T09:11:00;22.80;63.60
44517;DHT22;30223;17.182;-96.766;2022-08-01T09:13:26;22.80;63.60
44517;DHT22;30223;17.182;-96.766;2022-08-01T09:15:54;22.80;63.50
44517;DHT22;30223;17.182;-96.766;2022-08-01T09:26:12;22.70;63.40
44517;DHT22;30223;17.182;-96.766;2022-08-01T09:28:40;22.70;63.30
44517;DHT22;30223;17.182;-96.766;2022-08-01T09:31:12;22.70;63.30
44517;DHT22;30223;17.182;-96.766;2022-08-01T09:33:56;22.70;63.30
44517;DHT22;30223;17.182;-96.766;2022-08-01T09:36:25;22.70;63.20
44517;DHT22;30223;17.182;-96.766;2022-08-01T09:38:54;22.60;63.20
44517;DHT22;30223;17.182;-96.766;2022-08-01T09:41:30;22.60;63.40
44517;DHT22;30223;17.182;-96.766;2022-08-01T09:43:57;22.60;63.20
44517;DHT22;30223;17.182;-96.766;2022-08-01T09:46:25;22.60;63.30
44517;DHT22;30223;17.182;-96.766;2022-08-01T09:49:03;22.60;63.40
44517;DHT22;30223;17.182;-96.766;2022-08-01T09:51:34;22.50;63.30
44517;DHT22;30223;17.182;-96.766;2022-08-01T09:54:02;22.50;63.40
44517;DHT22;30223;17.182;-96.766;2022-08-01T09:56:42;22.50;63.30
44517;DHT22;30223;17.182;-96.766;2022-08-01T09:59:09;22.60;63.40
44517;DHT22;30223;17.182;-96.766;2022-08-01T10:01:43;22.60;63.40
44517;DHT22;30223;17.182;-96.766;2022-08-01T10:04:15;22.60;63.40
44517;DHT22;30223;17.182;-96.766;2022-08-01T10:06:47;22.50;63.40
44517;DHT22;30223;17.182;-96.766;2022-08-01T10:09:18;22.50;63.30
44517;DHT22;30223;17.182;-96.766;2022-08-01T10:11:53;22.50;63.40
44517;DHT22;30223;17.182;-96.766;2022-08-01T10:14:24;22.50;63.40
44517;DHT22;30223;17.182;-96.766;2022-08-01T10:16:53;22.40;63.40
44517;DHT22;30223;17.182;-96.766;2022-08-01T10:19:23;22.40;63.40
44517;DHT22;30223;17.182;-96.766;2022-08-01T10:21:52;22.40;63.40
44517;DHT22;30223;17.182;-96.766;2022-08-01T10:24:23;22.40;63.50
44517;DHT22;30223;17.182;-96.766;2022-08-01T10:27:00;22.40;63.50
44517;DHT22;30223;17.182;-96.766;2022-08-01T10:29:29;22.40;63.60
44517;DHT22;30223;17.182;-96.766;2022-08-01T10:31:57;22.30;63.50
44517;DHT22;30223;17.182;-96.766;2022-08-01T10:34:25;22.30;63.60
44517;DHT22;30223;17.182;-96.766;2022-08-01T10:36:52;22.30;63.60
44517;DHT22;30223;17.182;-96.766;2022-08-01T10:39:19;22.30;63.70
44517;DHT22;30223;17.182;-96.766;2022-08-01T10:41:45;22.30;63.70
44517;DHT22;30223;17.182;-96.766;2022-08-01T10:44:12;22.30;63.70
44517;DHT22;30223;17.182;-96.766;2022-08-01T10:46:46;22.30;63.90
44517;DHT22;30223;17.182;-96.766;2022-08-01T10:49:17;22.30;63.80
44517;DHT22;30223;17.182;-96.766;2022-08-01T10:51:47;22.30;63.80
44517;DHT22;30223;17.182;-96.766;2022-08-01T10:54:13;22.30;63.80
44517;DHT22;30223;17.182;-96.766;2022-08-01T10:56:47;22.20;63.80
44517;DHT22;30223;17.182;-96.766;2022-08-01T10:59:25;22.20;63.90
44517;DHT22;30223;17.182;-96.766;2022-08-01T11:02:03;22.20;63.80
44517;DHT22;30223;17.182;-96.766;2022-08-01T11:07:17;22.20;63.90
44517;DHT22;30223;17.182;-96.766;2022-08-01T11:10:09;22.20;64.00
44517;DHT22;30223;17.182;-96.766;2022-08-01T11:12:40;22.20;64.00
44517;DHT22;30223;17.182;-96.766;2022-08-01T11:17:42;22.10;64.00
44517;DHT22;30223;17.182;-96.766;2022-08-01T11:20:16;22.10;64.00
44517;DHT22;30223;17.182;-96.766;2022-08-01T11:30:44;22.10;64.10
44517;DHT22;30223;17.182;-96.766;2022-08-01T11:33:12;22.10;64.20
44517;DHT22;30223;17.182;-96.766;2022-08-01T11:41:16;22.00;64.20
44517;DHT22;30223;17.182;-96.766;2022-08-01T11:44:06;22.00;64.10
44517;DHT22;30223;17.182;-96.766;2022-08-01T11:52:15;21.90;64.10
44517;DHT22;30223;17.182;-96.766;2022-08-01T11:54:50;21.90;64.10
44517;DHT22;30223;17.182;-96.766;2022-08-01T11:57:24;21.90;64.20
44517;DHT22;30223;17.182;-96.766;2022-08-01T11:59:56;21.90;64.20
44517;DHT22;30223;17.182;-96.766;2022-08-01T12:02:28;21.90;64.20
44517;DHT22;30223;17.182;-96.766;2022-08-01T12:05:06;21.80;64.20
44517;DHT22;30223;17.182;-96.766;2022-08-01T12:07:34;21.80;64.30
44517;DHT22;30223;17.182;-96.766;2022-08-01T12:10:06;21.80;64.10
44517;DHT22;30223;17.182;-96.766;2022-08-01T12:12:34;21.80;64.00
44517;DHT22;30223;17.182;-96.766;2022-08-01T12:15:04;21.70;64.00
44517;DHT22;30223;17.182;-96.766;2022-08-01T12:17:46;21.70;64.30
44517;DHT22;30223;17.182;-96.766;2022-08-01T12:20:19;21.70;64.20
44517;DHT22;30223;17.182;-96.766;2022-08-01T12:22:46;21.70;64.10
44517;DHT22;30223;17.182;-96.766;2022-08-01T12:25:14;21.70;64.20
44517;DHT22;30223;17.182;-96.766;2022-08-01T12:27:42;21.70;63.90
44517;DHT22;30223;17.182;-96.766;2022-08-01T12:30:11;21.60;64.60
44517;DHT22;30223;17.182;-96.766;2022-08-01T12:32:40;21.70;64.10
44517;DHT22;30223;17.182;-96.766;2022-08-01T12:35:15;21.70;64.30
44517;DHT22;30223;17.182;-96.766;2022-08-01T12:37:46;21.60;64.20
44517;DHT22;30223;17.182;-96.766;2022-08-01T12:40:22;21.60;64.20
44517;DHT22;30223;17.182;-96.766;2022-08-01T12:42:55;21.60;64.20
44517;DHT22;30223;17.182;-96.766;2022-08-01T12:45:28;21.60;64.30
44517;DHT22;30223;17.182;-96.766;2022-08-01T12:47:58;21.60;64.30
44517;DHT22;30223;17.182;-96.766;2022-08-01T12:50:26;21.60;64.30
44517;DHT22;30223;17.182;-96.766;2022-08-01T12:52:54;21.60;64.30
44517;DHT22;30223;17.182;-96.766;2022-08-01T12:55:22;21.50;64.30
44517;DHT22;30223;17.182;-96.766;2022-08-01T12:58:13;21.60;64.30
44517;DHT22;30223;17.182;-96.766;2022-08-01T13:00:39;21.50;64.30
44517;DHT22;30223;17.182;-96.766;2022-08-01T13:03:12;21.50;64.40
44517;DHT22;30223;17.182;-96.766;2022-08-01T13:08:13;21.50;64.70
44517;DHT22;30223;17.182;-96.766;2022-08-01T13:10:41;21.50;64.80
44517;DHT22;30223;17.182;-96.766;2022-08-01T13:13:08;21.50;64.80
44517;DHT22;30223;17.182;-96.766;2022-08-01T13:15:37;21.50;64.90
44517;DHT22;30223;17.182;-96.766;2022-08-01T13:23:37;21.50;64.90
44517;DHT22;30223;17.182;-96.766;2022-08-01T13:26:05;21.50;64.80
44517;DHT22;30223;17.182;-96.766;2022-08-01T13:28:32;21.50;64.70
44517;DHT22;30223;17.182;-96.766;2022-08-01T13:31:06;21.60;64.70
44517;DHT22;30223;17.182;-96.766;2022-08-01T13:33:59;21.60;64.60
44517;DHT22;30223;17.182;-96.766;2022-08-01T13:36:26;21.60;64.50
44517;DHT22;30223;17.182;-96.766;2022-08-01T13:38:59;21.60;64.60
44517;DHT22;30223;17.182;-96.766;2022-08-01T13:41:45;21.60;64.50
44517;DHT22;30223;17.182;-96.766;2022-08-01T13:44:12;21.70;64.50
44517;DHT22;30223;17.182;-96.766;2022-08-01T13:46:40;21.70;64.50
44517;DHT22;30223;17.182;-96.766;2022-08-01T13:49:08;21.70;64.50
44517;DHT22;30223;17.182;-96.766;2022-08-01T13:51:36;21.60;64.30
44517;DHT22;30223;17.182;-96.766;2022-08-01T13:54:04;21.70;64.40
44517;DHT22;30223;17.182;-96.766;2022-08-01T13:56:31;21.70;64.30
44517;DHT22;30223;17.182;-96.766;2022-08-01T13:58:58;21.70;64.30
44517;DHT22;30223;17.182;-96.766;2022-08-01T14:01:25;21.70;64.30
44517;DHT22;30223;17.182;-96.766;2022-08-01T14:03:52;21.80;64.30
44517;DHT22;30223;17.182;-96.766;2022-08-01T14:06:19;21.70;64.20
44517;DHT22;30223;17.182;-96.766;2022-08-01T14:08:48;21.70;64.10
44517;DHT22;30223;17.182;-96.766;2022-08-01T14:11:15;21.80;64.20
44517;DHT22;30223;17.182;-96.766;2022-08-01T14:13:43;21.80;64.10
44517;DHT22;30223;17.182;-96.766;2022-08-01T14:16:09;21.80;64.10
44517;DHT22;30223;17.182;-96.766;2022-08-01T14:18:36;21.80;64.00
44517;DHT22;30223;17.182;-96.766;2022-08-01T14:21:03;21.80;64.00
44517;DHT22;30223;17.182;-96.766;2022-08-01T14:23:29;21.80;64.00
44517;DHT22;30223;17.182;-96.766;2022-08-01T14:25:56;21.80;64.00
44517;DHT22;30223;17.182;-96.766;2022-08-01T14:28:23;21.80;64.00
44517;DHT22;30223;17.182;-96.766;2022-08-01T14:30:50;21.80;64.00
44517;DHT22;30223;17.182;-96.766;2022-08-01T14:33:17;21.80;64.00
44517;DHT22;30223;17.182;-96.766;2022-08-01T14:35:43;21.80;64.00
44517;DHT22;30223;17.182;-96.766;2022-08-01T14:38:10;21.80;64.00
44517;DHT22;30223;17.182;-96.766;2022-08-01T14:40:36;21.80;64.00
44517;DHT22;30223;17.182;-96.766;2022-08-01T14:43:03;21.80;64.00
44517;DHT22;30223;17.182;-96.766;2022-08-01T14:45:30;21.80;64.00
44517;DHT22;30223;17.182;-96.766;2022-08-01T14:47:56;21.80;64.00
44517;DHT22;30223;17.182;-96.766;2022-08-01T14:50:23;21.80;64.00
44517;DHT22;30223;17.182;-96.766;2022-08-01T14:52:52;21.80;64.10
44517;DHT22;30223;17.182;-96.766;2022-08-01T14:55:19;21.80;64.00
44517;DHT22;30223;17.182;-96.766;2022-08-01T14:57:49;21.80;64.10
44517;DHT22;30223;17.182;-96.766;2022-08-01T15:00:16;21.90;64.10
44517;DHT22;30223;17.182;-96.766;2022-08-01T15:02:43;21.90;64.10
44517;DHT22;30223;17.182;-96.766;2022-08-01T15:05:10;21.90;64.70
44517;DHT22;30223;17.182;-96.766;2022-08-01T15:07:37;21.90;64.00
44517;DHT22;30223;17.182;-96.766;2022-08-01T15:10:05;21.90;64.00
44517;DHT22;30223;17.182;-96.766;2022-08-01T15:12:32;21.90;64.00
44517;DHT22;30223;17.182;-96.766;2022-08-01T15:15:00;21.90;64.00
44517;DHT22;30223;17.182;-96.766;2022-08-01T15:17:30;22.00;64.00
44517;DHT22;30223;17.182;-96.766;2022-08-01T15:20:04;22.00;64.00
44517;DHT22;30223;17.182;-96.766;2022-08-01T15:22:32;22.00;63.90
44517;DHT22;30223;17.182;-96.766;2022-08-01T15:25:01;22.00;63.90
44517;DHT22;30223;17.182;-96.766;2022-08-01T15:27:28;22.00;63.90
44517;DHT22;30223;17.182;-96.766;2022-08-01T15:29:55;22.10;63.90
44517;DHT22;30223;17.182;-96.766;2022-08-01T15:32:23;22.10;64.00
44517;DHT22;30223;17.182;-96.766;2022-08-01T15:34:49;22.10;63.90
44517;DHT22;30223;17.182;-96.766;2022-08-01T15:37:16;22.10;63.90
44517;DHT22;30223;17.182;-96.766;2022-08-01T15:39:43;22.10;63.70
44517;DHT22;30223;17.182;-96.766;2022-08-01T15:42:12;22.10;63.80
44517;DHT22;30223;17.182;-96.766;2022-08-01T15:44:39;22.20;63.80
44517;DHT22;30223;17.182;-96.766;2022-08-01T15:47:06;22.20;63.70
44517;DHT22;30223;17.182;-96.766;2022-08-01T15:49:33;22.20;63.70
44517;DHT22;30223;17.182;-96.766;2022-08-01T15:52:08;22.20;63.60
44517;DHT22;30223;17.182;-96.766;2022-08-01T15:54:35;22.20;63.60
44517;DHT22;30223;17.182;-96.766;2022-08-01T15:57:02;22.30;63.60
44517;DHT22;30223;17.182;-96.766;2022-08-01T15:59:29;22.30;63.60
44517;DHT22;30223;17.182;-96.766;2022-08-01T16:01:55;22.30;63.50